Time;durP1;ratioP1;P1;durP2;ratioP2;P2;SDS_P1;SDS_P2;PMS_P1;PMS_P2;Temp;Humidity;BMP_temperature;BMP_pressure;BME280_temperature;BME280_humidity;BME280_pressure;Samples;Min_cycle;Max_cycle;Signal;HPM_P1;HPM_P2
2023/12/14 00:00:35;;;;;;;4.10;2.00;;;;;;;2.99;100.00;100865.97;4965905;28;20097;-74
2023/12/14 00:03:01;;;;;;;4.22;2.15;;;;;;;3.01;100.00;100871.03;4981763;28;20396;-74
2023/12/14 00:05:28;;;;;;;3.63;1.80;;;;;;;3.03;100.00;100862.88;4980416;28;20054;-74
2023/12/14 00:07:54;;;;;;;3.90;1.88;;;;;;;3.04;100.00;100869.78;4960767;28;20129;-74
2023/12/14 00:10:22;;;;;;;4.15;2.10;;;;;;;3.06;100.00;100870.38;4967781;28;20038;-73
2023/12/14 00:12:50;;;;;;;3.83;2.05;;;;;;;3.05;100.00;100874.88;4993912;28;20045;-72
2023/12/14 00:15:16;;;;;;;3.42;2.00;;;;;;;3.06;100.00;100887.06;4962575;28;20038;-72
2023/12/14 00:17:43;;;;;;;3.00;1.80;;;;;;;3.06;100.00;100884.44;4964344;28;20144;-73
2023/12/14 00:20:11;;;;;;;3.10;2.15;;;;;;;3.08;100.00;100886.84;4982672;28;20030;-73
2023/12/14 00:22:37;;;;;;;4.00;2.05;;;;;;;3.11;100.00;100897.00;4984672;28;20030;-73
2023/12/14 00:25:05;;;;;;;5.78;2.00;;;;;;;3.12;100.00;100901.28;4979655;28;20026;-73
2023/12/14 00:27:30;;;;;;;3.55;2.08;;;;;;;3.13;100.00;100903.72;4982866;28;20030;-73
2023/12/14 00:29:56;;;;;;;6.90;1.85;;;;;;;3.14;100.00;100899.22;4983806;28;20558;-73
2023/12/14 00:32:22;;;;;;;3.25;1.83;;;;;;;3.15;100.00;100904.28;4964802;28;20031;-74
2023/12/14 00:34:48;;;;;;;3.63;1.80;;;;;;;3.14;100.00;100910.63;4964201;28;20057;-73
2023/12/14 00:37:14;;;;;;;2.83;1.55;;;;;;;3.16;100.00;100907.75;4981542;28;20042;-73
2023/12/14 00:39:40;;;;;;;3.42;1.48;;;;;;;3.15;100.00;100912.22;4980545;28;20061;-73
2023/12/14 00:42:06;;;;;;;3.47;2.08;;;;;;;3.16;100.00;100923.63;4964787;28;20062;-73
2023/12/14 00:44:31;;;;;;;3.22;1.33;;;;;;;3.18;100.00;100926.84;4949211;28;20026;-73
2023/12/14 00:46:58;;;;;;;3.35;1.70;;;;;;;3.16;100.00;100935.00;4981916;28;20034;-72
2023/12/14 00:49:24;;;;;;;3.28;1.65;;;;;;;3.16;100.00;100939.50;4946593;28;20165;-72
2023/12/14 00:51:49;;;;;;;3.22;1.60;;;;;;;3.13;100.00;100943.41;4983214;28;20041;-72
2023/12/14 00:54:15;;;;;;;3.03;1.55;;;;;;;3.14;100.00;100946.84;4966241;28;20042;-72
2023/12/14 00:56:41;;;;;;;3.42;1.45;;;;;;;3.17;100.00;100962.28;4980120;28;20046;-73
2023/12/14 00:59:09;;;;;;;3.05;1.92;;;;;;;3.17;100.00;100951.69;4975783;28;20112;-73
2023/12/14 01:01:34;;;;;;;2.33;1.40;;;;;;;3.17;100.00;100962.28;4994980;28;20042;-74
2023/12/14 01:04:00;;;;;;;3.10;1.45;;;;;;;3.19;100.00;100963.72;4956003;28;20105;-73
2023/12/14 01:06:26;;;;;;;2.28;1.30;;;;;;;3.20;100.00;100967.16;4981170;28;20046;-72
2023/12/14 01:08:52;;;;;;;2.67;1.20;;;;;;;3.21;100.00;100971.44;4948831;28;20031;-72
2023/12/14 01:11:18;;;;;;;2.22;1.20;;;;;;;3.21;100.00;100980.19;4979755;28;20042;-72
2023/12/14 01:13:44;;;;;;;2.67;1.20;;;;;;;3.22;100.00;100975.69;4983430;28;20061;-72
2023/12/14 01:16:10;;;;;;;3.60;1.80;;;;;;;3.23;100.00;100974.66;4965939;28;20731;-72
2023/12/14 01:18:39;;;;;;;2.95;1.40;;;;;;;3.24;100.00;100976.28;4981945;28;20039;-72
2023/12/14 01:21:05;;;;;;;3.05;1.35;;;;;;;3.27;100.00;100981.16;4982486;28;20042;-72
2023/12/14 01:23:30;;;;;;;3.63;1.20;;;;;;;3.26;100.00;100976.91;4978411;28;20038;-72
2023/12/14 01:25:56;;;;;;;2.35;1.20;;;;;;;3.27;100.00;100989.09;4982806;28;20045;-73
2023/12/14 01:28:22;;;;;;;3.95;1.52;;;;;;;3.26;100.00;100993.59;4992873;23;20984;-71
2023/12/14 01:30:48;;;;;;;3.15;1.40;;;;;;;3.28;100.00;101001.31;4995657;28;20491;-72
2023/12/14 01:33:14;;;;;;;4.07;1.92;;;;;;;3.28;100.00;101001.31;4981017;28;20068;-72
2023/12/14 01:35:40;;;;;;;3.17;1.40;;;;;;;3.28;100.00;101003.97;4980084;28;20042;-72
2023/12/14 01:38:05;;;;;;;2.80;1.67;;;;;;;3.27;100.00;101005.78;4975162;28;20034;-72
2023/12/14 01:40:31;;;;;;;2.60;1.25;;;;;;;3.28;100.00;101014.53;5009504;28;20038;-71
2023/12/14 01:43:10;;;;;;;2.83;1.52;;;;;;;3.30;100.00;101015.13;4982229;28;20065;-72
2023/12/14 01:45:37;;;;;;;4.55;1.52;;;;;;;3.33;100.00;101012.06;4979543;28;20038;-72
2023/12/14 01:48:04;;;;;;;2.28;1.27;;;;;;;3.32;100.00;101023.69;4979212;28;20036;-72
2023/12/14 01:50:30;;;;;;;2.15;1.00;;;;;;;3.33;100.00;101017.38;4983258;28;20068;-71
2023/12/14 01:52:55;;;;;;;2.45;1.30;;;;;;;3.34;100.00;101021.63;4987097;28;20558;-70
2023/12/14 01:55:22;;;;;;;3.60;1.42;;;;;;;3.37;100.00;101033.63;4997283;28;20030;-71
2023/12/14 01:57:47;;;;;;;;;;;;;;;3.38;100.00;101033.41;5003531;28;20034;-71
2023/12/14 02:00:38;;;;;;;3.83;1.60;;;;;;;3.38;100.00;101033.41;4999360;28;19917;-71
2023/12/14 02:03:05;;;;;;;3.13;1.52;;;;;;;3.38;100.00;101041.34;4991898;28;20045;-72
2023/12/14 02:05:30;;;;;;;2.08;1.02;;;;;;;3.38;100.00;101027.28;5000901;28;20448;-72
2023/12/14 02:07:57;;;;;;;1.90;1.20;;;;;;;3.42;100.00;101039.91;4980965;28;20040;-72
2023/12/14 02:10:23;;;;;;;3.90;1.40;;;;;;;3.43;100.00;101038.06;4979192;28;20828;-71
2023/12/14 02:12:49;;;;;;;1.90;1.30;;;;;;;3.40;100.00;101034.00;4993024;28;20084;-72
2023/12/14 02:15:14;;;;;;;2.03;1.50;;;;;;;3.41;100.00;101030.34;4997856;28;20052;-71
2023/12/14 02:17:40;;;;;;;1.92;1.20;;;;;;;3.43;100.00;101044.16;4999757;28;20040;-71
2023/12/14 02:20:06;;;;;;;3.88;1.40;;;;;;;3.42;100.00;101039.91;4993278;28;20065;-70
2023/12/14 02:22:53;;;;;;;1.90;1.40;;;;;;;3.44;100.00;101043.13;4977617;28;20038;-72
2023/12/14 02:25:19;;;;;;;2.33;1.42;;;;;;;3.45;100.00;101049.22;5000256;28;20033;-71
2023/12/14 02:27:45;;;;;;;2.75;1.23;;;;;;;3.47;100.00;101048.00;5004254;28;20411;-71
2023/12/14 02:30:12;;;;;;;2.55;1.42;;;;;;;3.46;100.00;101051.69;4996102;28;20487;-72
2023/12/14 02:32:38;;;;;;;4.82;1.30;;;;;;;3.46;100.00;101051.69;5002328;28;20037;-72
2023/12/14 02:35:06;;;;;;;2.83;1.13;;;;;;;3.48;100.00;101060.22;5001696;28;20066;-71
2023/12/14 02:37:32;;;;;;;2.92;1.00;;;;;;;3.47;100.00;101049.84;4998011;28;20120;-71
2023/12/14 02:39:58;;;;;;;1.83;1.00;;;;;;;3.45;100.00;101049.22;5003350;28;20125;-71
2023/12/14 02:42:23;;;;;;;;;;;;;;;3.47;100.00;101058.59;5001584;28;20783;-71
2023/12/14 02:44:50;;;;;;;3.55;1.20;;;;;;;3.46;100.00;101056.97;4997963;28;20008;-71
2023/12/14 02:47:16;;;;;;;3.33;1.70;;;;;;;3.42;100.00;101055.78;4999907;28;20113;-71
2023/12/14 02:49:43;;;;;;;4.57;1.25;;;;;;;3.44;100.00;101066.16;4999862;28;20518;-71
2023/12/14 02:52:09;;;;;;;1.67;1.50;;;;;;;3.44;100.00;101066.97;5003361;28;20047;-71
2023/12/14 02:54:36;;;;;;;2.88;1.67;;;;;;;3.46;100.00;101075.53;5001528;28;20037;-71
2023/12/14 02:57:02;;;;;;;3.13;1.17;;;;;;;3.45;100.00;101065.13;5000859;28;20842;-72
2023/12/14 02:59:28;;;;;;;4.03;1.52;;;;;;;3.44;100.00;101074.91;4997535;28;20846;-72
2023/12/14 03:01:54;;;;;;;1.60;1.13;;;;;;;3.46;100.00;101072.88;4998412;28;20034;-72
2023/12/14 03:04:19;;;;;;;5.13;1.63;;;;;;;3.45;100.00;101079.16;4982008;28;20470;-72
2023/12/14 03:06:45;;;;;;;4.97;1.55;;;;;;;3.44;100.00;101077.53;4984787;28;20432;-72
2023/12/14 03:09:11;;;;;;;2.63;1.50;;;;;;;3.44;100.00;101090.78;4998035;28;20046;-70
2023/12/14 03:11:37;;;;;;;4.50;1.42;;;;;;;3.44;100.00;101085.50;5000820;28;20037;-72
2023/12/14 03:14:03;;;;;;;2.50;1.35;;;;;;;3.43;100.00;101091.81;4996330;28;20034;-74
2023/12/14 03:16:28;;;;;;;2.20;0.95;;;;;;;3.44;100.00;101095.28;5003016;28;20041;-72
2023/12/14 03:18:55;;;;;;;3.83;1.45;;;;;;;3.42;100.00;101097.34;5002985;28;20052;-73
2023/12/14 03:21:20;;;;;;;3.90;1.63;;;;;;;3.42;100.00;101108.72;5000197;28;20029;-71
2023/12/14 03:23:46;;;;;;;1.88;1.30;;;;;;;3.43;100.00;101110.34;4999523;28;20030;-72
2023/12/14 03:26:12;;;;;;;3.70;1.80;;;;;;;3.40;100.00;101105.50;4997658;28;20030;-72
2023/12/14 03:28:38;;;;;;;2.35;1.20;;;;;;;3.42;100.00;101124.63;4972331;28;20516;-71
2023/12/14 03:31:03;;;;;;;2.95;1.30;;;;;;;3.42;100.00;101121.97;5001472;28;20036;-71
2023/12/14 03:33:29;;;;;;;4.07;1.40;;;;;;;3.41;100.00;101124.84;4997308;28;20042;-71
2023/12/14 03:35:55;;;;;;;3.60;1.38;;;;;;;3.41;100.00;101123.00;5005236;28;20136;-73
2023/12/14 03:38:21;;;;;;;2.80;1.30;;;;;;;3.43;100.00;101131.53;5004793;28;20037;-72
2023/12/14 03:40:47;;;;;;;5.75;1.60;;;;;;;3.41;100.00;101128.28;5003060;28;20503;-72
2023/12/14 03:43:13;;;;;;;3.75;2.13;;;;;;;3.41;100.00;101132.78;5003240;28;20030;-73
2023/12/14 03:45:38;;;;;;;3.88;1.50;;;;;;;3.43;100.00;101136.03;5002193;28;20052;-72
2023/12/14 03:48:04;;;;;;;3.20;1.52;;;;;;;3.41;100.00;101143.38;4999441;28;20044;-72
2023/12/14 03:50:30;;;;;;;4.35;1.30;;;;;;;3.40;100.00;101147.03;4986755;28;20034;-73
2023/12/14 03:52:56;;;;;;;2.00;1.20;;;;;;;3.40;100.00;101147.03;4989349;28;20046;-73
2023/12/14 03:55:21;;;;;;;2.90;1.40;;;;;;;3.39;100.00;101146.25;5003486;28;20038;-73
2023/12/14 03:57:47;;;;;;;3.05;1.50;;;;;;;3.40;100.00;101149.69;4981824;28;20037;-72
2023/12/14 04:00:14;;;;;;;3.25;1.83;;;;;;;3.41;100.00;101154.78;5000413;28;20029;-72
2023/12/14 04:02:40;;;;;;;5.05;2.05;;;;;;;3.39;100.00;101156.84;4997945;28;20128;-72
2023/12/14 04:05:08;;;;;;;3.60;1.23;;;;;;;3.41;100.00;101170.66;4988852;28;20034;-72
2023/12/14 04:07:36;;;;;;;2.70;1.30;;;;;;;3.38;100.00;101164.97;4994788;28;20033;-72
2023/12/14 04:10:02;;;;;;;3.25;1.42;;;;;;;3.38;100.00;101171.06;5000124;28;20030;-72
2023/12/14 04:12:28;;;;;;;2.53;1.80;;;;;;;3.38;100.00;101171.06;4985461;28;20057;-72
2023/12/14 04:14:53;;;;;;;3.72;1.55;;;;;;;3.38;100.00;101168.41;4998244;28;20025;-72
2023/12/14 04:17:19;;;;;;;3.03;1.80;;;;;;;3.38;100.00;101173.72;4996798;28;20037;-71
2023/12/14 04:19:45;;;;;;;2.22;1.55;;;;;;;3.37;100.00;101174.75;4987823;28;20044;-71
2023/12/14 04:22:11;;;;;;;4.50;1.85;;;;;;;3.37;100.00;101174.75;5000181;28;20045;-72
2023/12/14 04:24:36;;;;;;;3.58;1.80;;;;;;;3.37;100.00;101181.88;5005920;28;20399;-71
2023/12/14 04:27:02;;;;;;;4.35;1.75;;;;;;;3.35;100.00;101182.09;4988340;28;20033;-71
2023/12/14 04:29:28;;;;;;;4.10;1.92;;;;;;;3.34;100.00;101191.06;4987369;28;20416;-72
2023/12/14 04:31:54;;;;;;;4.22;1.60;;;;;;;3.34;100.00;101185.75;5008985;28;20511;-71
2023/12/14 04:34:20;;;;;;;4.55;2.20;;;;;;;3.34;100.00;101185.75;5002623;28;20077;-71
2023/12/14 04:36:46;;;;;;;3.05;1.70;;;;;;;3.32;100.00;101185.16;4987217;28;20498;-71
2023/12/14 04:39:11;;;;;;;3.10;1.88;;;;;;;3.32;100.00;101187.81;4998525;28;20411;-71
2023/12/14 04:41:37;;;;;;;2.72;1.75;;;;;;;3.33;100.00;101191.28;5008285;28;20045;-71
2023/12/14 04:44:03;;;;;;;3.00;1.75;;;;;;;3.31;100.00;101191.47;4997434;28;20057;-72
2023/12/14 04:46:29;;;;;;;;;;;;;;;3.33;100.00;101193.94;4996060;28;20038;-71
2023/12/14 04:48:55;;;;;;;3.05;1.67;;;;;;;3.34;100.00;101206.13;4986503;28;20387;-71
2023/12/14 04:51:21;;;;;;;3.15;1.90;;;;;;;3.32;100.00;101203.72;5000399;28;20491;-71
2023/12/14 04:53:46;;;;;;;2.92;1.73;;;;;;;3.34;100.00;101208.78;4997728;28;20034;-71
2023/12/14 04:56:12;;;;;;;4.55;2.00;;;;;;;3.33;100.00;101204.50;5000960;28;20069;-72
2023/12/14 04:58:39;;;;;;;7.20;2.38;;;;;;;3.32;100.00;101209.00;4986160;28;20030;-71
2023/12/14 05:01:06;;;;;;;4.45;2.05;;;;;;;3.33;100.00;101226.50;4999749;28;20042;-73
2023/12/14 05:03:33;;;;;;;5.78;2.05;;;;;;;3.33;100.00;101228.34;4993688;28;20034;-72
2023/12/14 05:05:59;;;;;;;5.00;2.08;;;;;;;3.32;100.00;101235.47;4987646;28;20033;-71
2023/12/14 05:08:25;;;;;;;3.97;2.38;;;;;;;3.32;100.00;101235.47;5001468;28;20397;-71
2023/12/14 05:10:50;;;;;;;3.03;1.95;;;;;;;3.33;100.00;101225.69;5003388;28;20483;-71
2023/12/14 05:13:16;;;;;;;2.83;1.85;;;;;;;3.34;100.00;101229.97;4983561;28;20793;-71
2023/12/14 05:15:42;;;;;;;4.10;2.45;;;;;;;3.35;100.00;101224.44;4996532;28;20096;-71
2023/12/14 05:18:08;;;;;;;6.55;2.22;;;;;;;3.35;100.00;101227.09;4984605;28;20040;-72
2023/12/14 05:20:35;;;;;;;6.70;2.60;;;;;;;3.37;100.00;101234.81;5010933;28;21382;-72
2023/12/14 05:23:01;;;;;;;3.63;2.42;;;;;;;3.38;100.00;101242.56;4997745;28;20125;-72
2023/12/14 05:25:27;;;;;;;5.00;2.50;;;;;;;3.38;100.00;101257.63;4996985;28;20430;-73
2023/12/14 05:27:53;;;;;;;5.40;2.33;;;;;;;3.39;100.00;101257.44;5017163;28;20081;-72
2023/12/14 05:30:19;;;;;;;4.35;2.55;;;;;;;3.39;100.00;101268.03;5004138;28;20490;-72
2023/12/14 05:32:45;;;;;;;4.68;2.60;;;;;;;3.40;100.00;101269.66;5001775;28;20080;-72
2023/12/14 05:35:11;;;;;;;4.47;2.60;;;;;;;3.40;100.00;101263.53;4997519;28;20042;-71
2023/12/14 05:37:38;;;;;;;3.47;1.90;;;;;;;3.42;100.00;101266.78;5003593;28;20530;-71
2023/12/14 05:40:05;;;;;;;4.57;2.00;;;;;;;3.43;100.00;101268.41;5006897;28;20038;-71
2023/12/14 05:42:31;;;;;;;;;;;;;;;3.43;100.00;101279.81;5003386;28;20049;-71
2023/12/14 05:44:56;;;;;;;7.50;2.40;;;;;;;3.43;100.00;101279.00;5003436;28;19913;-71
2023/12/14 05:47:22;;;;;;;3.40;2.35;;;;;;;3.40;100.00;101282.88;4985567;28;20567;-71
2023/12/14 05:49:48;;;;;;;4.32;2.28;;;;;;;3.42;100.00;101287.97;5003603;28;20040;-71
2023/12/14 05:52:14;;;;;;;3.92;2.00;;;;;;;3.42;100.00;101288.78;4996861;28;20074;-71
2023/12/14 05:54:39;;;;;;;4.50;2.35;;;;;;;3.43;100.00;101295.69;5002285;28;20479;-71
2023/12/14 05:57:05;;;;;;;6.32;2.50;;;;;;;3.42;100.00;101299.38;4987310;28;20065;-71
2023/12/14 05:59:31;;;;;;;3.35;2.40;;;;;;;3.43;100.00;101313.44;4982710;28;20076;-71
2023/12/14 06:01:57;;;;;;;4.93;2.50;;;;;;;3.41;100.00;101313.63;4964902;28;20479;-73
2023/12/14 06:04:24;;;;;;;5.07;2.53;;;;;;;3.43;100.00;101305.47;4979737;28;20085;-73
2023/12/14 06:06:50;;;;;;;5.82;2.25;;;;;;;3.44;100.00;101317.69;4966094;28;20030;-70
2023/12/14 06:09:17;;;;;;;5.22;2.40;;;;;;;3.41;100.00;101324.22;4998902;28;20038;-73
2023/12/14 06:11:43;;;;;;;6.53;2.60;;;;;;;3.43;100.00;101322.19;4999217;28;20048;-72
2023/12/14 06:14:09;;;;;;;5.55;2.38;;;;;;;3.46;100.00;101324.44;4958650;28;20034;-71
2023/12/14 06:16:34;;;;;;;3.80;2.40;;;;;;;3.46;100.00;101323.63;4979975;28;20044;-72
2023/12/14 06:19:00;;;;;;;4.93;2.33;;;;;;;3.46;100.00;101332.38;4997291;28;20033;-73
2023/12/14 06:21:28;;;;;;;4.70;2.70;;;;;;;3.45;100.00;101324.63;4978228;28;20255;-73
2023/12/14 06:23:54;;;;;;;3.97;2.38;;;;;;;3.47;100.00;101327.88;4998394;28;20026;-73
2023/12/14 06:26:19;;;;;;;7.00;2.95;;;;;;;3.47;100.00;101334.00;5003579;28;20029;-72
2023/12/14 06:28:45;;;;;;;5.15;2.80;;;;;;;3.48;100.00;101338.25;4997994;28;20084;-73
2023/12/14 06:31:15;;;;;;;5.53;2.72;;;;;;;3.47;100.00;101338.47;5001818;28;20107;-73
2023/12/14 06:33:41;;;;;;;5.82;2.65;;;;;;;3.47;100.00;101344.59;4997722;28;20037;-72
2023/12/14 06:36:10;;;;;;;3.85;2.58;;;;;;;3.47;100.00;101349.88;4985687;28;20034;-73
2023/12/14 06:38:40;;;;;;;4.82;2.65;;;;;;;3.47;100.00;101352.53;4997188;28;20072;-72
2023/12/14 06:41:06;;;;;;;5.15;2.92;;;;;;;3.47;100.00;101355.19;5000544;28;20033;-72
2023/12/14 06:43:32;;;;;;;6.05;2.88;;;;;;;3.46;100.00;101364.16;4994736;28;20034;-72
2023/12/14 06:45:58;;;;;;;5.22;2.45;;;;;;;3.50;100.00;101370.63;5008072;28;20052;-72
2023/12/14 06:48:23;;;;;;;4.15;2.63;;;;;;;3.51;100.00;101372.25;4997306;28;20045;-72
2023/12/14 06:50:49;;;;;;;4.75;2.80;;;;;;;3.48;100.00;101383.28;5002987;28;20041;-73
2023/12/14 06:53:15;;;;;;;7.80;2.88;;;;;;;3.47;100.00;101392.25;4999691;28;20258;-71
2023/12/14 06:55:41;;;;;;;;;;;;;;;3.47;100.00;101381.66;4984016;28;20535;-72
2023/12/14 06:58:11;;;;;;;6.22;2.80;;;;;;;3.46;100.00;101390.63;4983033;28;20056;-72
2023/12/14 07:00:37;;;;;;;6.30;3.00;;;;;;;3.43;100.00;101385.72;5001082;28;20048;-72
2023/12/14 07:03:03;;;;;;;5.38;2.50;;;;;;;3.43;100.00;101393.66;4999408;28;20077;-73
2023/12/14 07:05:29;;;;;;;4.88;2.92;;;;;;;3.41;100.00;101393.06;4982168;28;20038;-73
2023/12/14 07:07:56;;;;;;;5.22;2.75;;;;;;;3.39;100.00;101395.13;4968383;28;20041;-73
2023/12/14 07:10:22;;;;;;;5.28;2.50;;;;;;;3.38;100.00;101398.75;4990239;28;20034;-72
2023/12/14 07:12:48;;;;;;;7.40;2.75;;;;;;;3.36;100.00;101406.09;5002316;28;20037;-72
2023/12/14 07:15:14;;;;;;;6.55;3.30;;;;;;;3.35;100.00;101404.47;5000333;28;20049;-72
2023/12/14 07:17:40;;;;;;;9.05;3.13;;;;;;;3.35;100.00;101409.78;4966282;28;20053;-72
2023/12/14 07:20:06;;;;;;;6.47;3.38;;;;;;;3.36;100.00;101418.53;5003458;28;20033;-72
2023/12/14 07:22:32;;;;;;;;;;;;;;;3.34;100.00;101405.50;5000003;28;20038;-72
2023/12/14 07:24:58;;;;;;;7.72;3.15;;;;;;;3.34;100.00;101423.22;5003794;28;19924;-72
2023/12/14 07:27:24;;;;;;;5.50;2.95;;;;;;;3.34;100.00;101433.81;4998297;28;20411;-72
2023/12/14 07:29:49;;;;;;;7.10;3.55;;;;;;;3.29;100.00;101437.06;4979172;23;20066;-73
2023/12/14 07:32:16;;;;;;;6.93;3.33;;;;;;;3.27;100.00;101442.56;4963104;28;20051;-73
2023/12/14 07:34:41;;;;;;;8.38;3.55;;;;;;;3.28;100.00;101456.63;4950250;28;20038;-73
2023/12/14 07:37:07;;;;;;;4.68;2.88;;;;;;;3.28;100.00;101457.44;4950967;28;20034;-71
2023/12/14 07:39:33;;;;;;;5.45;3.13;;;;;;;3.28;100.00;101468.03;4978445;28;20043;-73
2023/12/14 07:41:59;;;;;;;9.95;4.00;;;;;;;3.28;100.00;101472.50;4952488;28;20038;-72
2023/12/14 07:44:25;;;;;;;9.05;3.38;;;;;;;3.29;100.00;101484.72;4946544;28;20401;-71
2023/12/14 07:46:51;;;;;;;7.00;3.80;;;;;;;3.29;100.00;101485.53;4962923;28;20043;-72
2023/12/14 07:49:22;;;;;;;6.22;3.42;;;;;;;3.30;100.00;101483.69;4959981;28;20129;-72
2023/12/14 07:51:48;;;;;;;7.20;3.70;;;;;;;3.28;100.00;101488.38;4951374;28;20039;-72
2023/12/14 07:54:13;;;;;;;9.55;4.10;;;;;;;3.27;100.00;101487.56;4965192;28;20042;-73
2023/12/14 07:56:39;;;;;;;10.20;3.80;;;;;;;3.27;100.00;101490.22;4966717;28;20034;-74
2023/12/14 07:59:07;;;;;;;7.60;3.53;;;;;;;3.29;100.00;101500.59;4963503;28;20520;-72
2023/12/14 08:01:33;;;;;;;10.27;4.53;;;;;;;3.29;100.00;101503.25;4965402;28;20078;-72
2023/12/14 08:04:01;;;;;;;8.68;3.88;;;;;;;3.28;100.00;101506.91;4962656;28;20449;-73
2023/12/14 08:06:27;;;;;;;9.35;4.05;;;;;;;3.29;100.00;101511.19;4964015;28;20054;-71
2023/12/14 08:08:55;;;;;;;11.80;4.18;;;;;;;3.30;100.00;101518.13;4948194;28;20396;-75
2023/12/14 08:11:20;;;;;;;5.82;3.67;;;;;;;3.30;100.00;101518.13;4948561;28;20888;-73
2023/12/14 08:13:47;;;;;;;8.65;4.22;;;;;;;3.31;100.00;101518.94;4945314;28;20054;-72
2023/12/14 08:16:13;;;;;;;7.82;3.97;;;;;;;3.32;100.00;101532.00;4963489;28;20105;-72
2023/12/14 08:18:40;;;;;;;9.13;4.65;;;;;;;3.33;100.00;101530.16;4945665;28;20089;-72
2023/12/14 08:21:06;;;;;;;9.05;4.15;;;;;;;3.34;100.00;101531.78;4948571;28;20507;-73
2023/12/14 08:23:32;;;;;;;7.28;3.80;;;;;;;3.35;100.00;101526.28;4966240;28;20046;-74
2023/12/14 08:25:58;;;;;;;8.30;4.22;;;;;;;3.35;100.00;101536.88;4948566;28;20062;-73
2023/12/14 08:28:25;;;;;;;8.73;4.13;;;;;;;3.37;100.00;101541.94;4950630;28;20121;-73
2023/12/14 08:30:51;;;;;;;9.10;4.38;;;;;;;3.37;100.00;101550.72;4969789;28;20113;-73
2023/12/14 08:33:18;;;;;;;11.07;4.55;;;;;;;3.37;100.00;101548.06;4949720;28;20046;-73
2023/12/14 08:35:43;;;;;;;;;;;;;;;3.38;100.00;101557.63;4944885;28;20051;-74
2023/12/14 08:38:10;;;;;;;9.63;4.10;;;;;;;3.38;100.00;101562.13;4951694;28;19922;-71
2023/12/14 08:40:37;;;;;;;6.40;3.72;;;;;;;3.41;100.00;101557.25;4963700;28;20439;-73
2023/12/14 08:43:03;;;;;;;10.25;4.30;;;;;;;3.41;100.00;101562.53;4965575;28;20061;-73
2023/12/14 08:45:29;;;;;;;8.90;3.88;;;;;;;3.42;100.00;101566.81;4951830;28;20496;-73
2023/12/14 08:47:56;;;;;;;8.07;4.35;;;;;;;3.43;100.00;101568.44;4952012;28;20433;-73
2023/12/14 08:50:22;;;;;;;9.60;4.53;;;;;;;3.45;100.00;101574.34;4964666;28;20523;-74
2023/12/14 08:52:49;;;;;;;8.48;4.43;;;;;;;3.47;100.00;101569.69;4973399;28;20151;-74
2023/12/14 08:55:14;;;;;;;9.55;4.35;;;;;;;3.48;100.00;101571.31;4946461;28;20058;-74
2023/12/14 08:57:40;;;;;;;8.15;4.07;;;;;;;3.51;100.00;101578.84;4968737;28;20039;-74
2023/12/14 09:00:07;;;;;;;10.32;4.60;;;;;;;3.51;100.00;101581.47;4970368;28;20034;-73
2023/12/14 09:02:33;;;;;;;8.65;4.43;;;;;;;3.54;100.00;101585.56;4979124;28;20360;-72
2023/12/14 09:04:58;;;;;;;8.88;4.25;;;;;;;3.53;100.00;101589.25;4954400;28;20476;-73
2023/12/14 09:07:24;;;;;;;8.32;4.57;;;;;;;3.54;100.00;101594.34;4954120;28;20038;-73
2023/12/14 09:09:51;;;;;;;8.85;4.82;;;;;;;3.54;100.00;101599.63;4968023;28;20039;-71
2023/12/14 09:12:17;;;;;;;9.48;4.57;;;;;;;3.57;100.00;101603.69;4970690;28;20089;-73
2023/12/14 09:14:43;;;;;;;6.78;4.25;;;;;;;3.59;100.00;101606.13;4969909;28;20066;-74
2023/12/14 09:17:09;;;;;;;10.73;5.55;;;;;;;3.58;100.00;101602.69;4952483;28;20040;-73
2023/12/14 09:19:35;;;;;;;6.63;3.95;;;;;;;3.59;100.00;101606.13;4937416;28;20039;-73
2023/12/14 09:22:00;;;;;;;8.02;3.42;;;;;;;3.60;100.00;101616.56;4952095;28;20034;-75
2023/12/14 09:24:26;;;;;;;6.32;4.25;;;;;;;3.61;100.00;101614.72;4941036;28;20034;-73
2023/12/14 09:26:52;;;;;;;8.77;4.15;;;;;;;3.62;100.00;101621.66;4963690;28;20027;-73
2023/12/14 09:29:18;;;;;;;6.07;3.90;;;;;;;3.63;100.00;101623.28;4951151;28;20046;-73
2023/12/14 09:31:46;;;;;;;7.78;4.13;;;;;;;3.63;100.00;101629.38;4967289;28;20038;-75
2023/12/14 09:34:12;;;;;;;9.32;4.43;;;;;;;3.66;100.00;101628.16;4964214;28;20039;-75
2023/12/14 09:36:39;;;;;;;8.95;4.00;;;;;;;3.68;100.00;101626.94;4937593;28;20046;-74
2023/12/14 09:39:05;;;;;;;6.05;3.75;;;;;;;3.72;100.00;101627.34;4952351;28;20035;-75
2023/12/14 09:41:31;;;;;;;6.70;3.78;;;;;;;3.73;100.00;101631.66;4952250;28;20405;-73
2023/12/14 09:43:59;;;;;;;7.97;3.40;;;;;;;3.74;100.00;101622.69;4963146;28;20074;-73
2023/12/14 09:46:27;;;;;;;6.90;3.63;;;;;;;3.76;100.00;101629.41;4969559;28;20035;-73
2023/12/14 09:48:54;;;;;;;10.05;4.97;;;;;;;3.79;100.00;101628.16;4967856;28;20038;-73
2023/12/14 09:51:20;;;;;;;7.78;3.45;;;;;;;3.77;100.00;101631.03;4935581;28;20042;-73
2023/12/14 09:53:47;;;;;;;6.30;3.80;;;;;;;3.84;100.00;101633.69;4965308;28;20125;-73
2023/12/14 09:56:12;;;;;;;9.07;4.53;;;;;;;3.83;100.00;101632.88;4965548;28;20173;-74
2023/12/14 09:58:38;;;;;;;10.00;4.20;;;;;;;3.90;100.00;101640.00;4965479;28;20078;-75
2023/12/14 10:01:21;;;;;;;6.70;4.10;;;;;;;3.89;100.00;101628.59;4969511;28;20065;-73
2023/12/14 10:03:47;;;;;;;7.53;4.10;;;;;;;3.91;100.00;101641.63;4961130;28;20035;-74
2023/12/14 10:06:13;;;;;;;7.70;3.83;;;;;;;3.91;100.00;101638.97;4968251;28;20030;-74
2023/12/14 10:08:38;;;;;;;7.43;4.78;;;;;;;3.93;100.00;101645.72;4935148;28;20063;-75
2023/12/14 10:11:16;;;;;;;8.23;3.90;;;;;;;3.97;100.00;101643.47;4948646;28;20489;-75
2023/12/14 10:13:42;;;;;;;7.50;4.00;;;;;;;3.99;100.00;101644.88;4966212;28;20042;-74
2023/12/14 10:16:08;;;;;;;6.63;4.03;;;;;;;3.97;100.00;101644.28;4965996;28;20097;-74
2023/12/14 10:18:36;;;;;;;5.93;3.38;;;;;;;3.98;100.00;101656.50;4965907;28;20377;-74
2023/12/14 10:21:01;;;;;;;6.32;3.70;;;;;;;3.95;100.00;101656.94;4936088;28;20050;-74
2023/12/14 10:23:28;;;;;;;7.45;4.00;;;;;;;4.00;100.00;101659.81;4966069;28;20043;-72
2023/12/14 10:25:54;;;;;;;;;;;;;;;4.01;100.00;101665.91;4949441;28;20702;-73
2023/12/14 10:28:19;;;;;;;7.65;3.72;;;;;;;4.01;100.00;101674.69;4966001;28;19980;-75
2023/12/14 10:30:45;;;;;;;7.95;4.10;;;;;;;4.05;100.00;101672.41;4950786;28;20050;-76
2023/12/14 10:33:11;;;;;;;8.88;4.20;;;;;;;4.07;100.00;101676.53;4930099;28;20039;-74
2023/12/14 10:35:37;;;;;;;6.57;3.97;;;;;;;4.07;100.00;101673.88;4929284;28;20415;-73
2023/12/14 10:38:05;;;;;;;7.30;4.55;;;;;;;4.10;100.00;101678.75;4965243;28;20572;-74
2023/12/14 10:40:36;;;;;;;7.20;3.15;;;;;;;4.11;100.00;101685.69;4965651;28;20041;-75
2023/12/14 10:43:03;;;;;;;9.95;4.72;;;;;;;4.14;100.00;101699.56;4946779;28;20047;-73
2023/12/14 10:45:32;;;;;;;10.90;4.53;;;;;;;4.16;100.00;101698.34;4963965;28;20026;-73
2023/12/14 10:48:03;;;;;;;9.20;5.35;;;;;;;4.18;100.00;101708.72;4944126;28;20042;-73
2023/12/14 10:50:30;;;;;;;7.72;4.43;;;;;;;4.18;100.00;101708.72;4944287;28;20035;-73
2023/12/14 10:53:01;;;;;;;9.07;4.80;;;;;;;4.17;100.00;101707.09;4949918;28;20070;-72
2023/12/14 10:55:35;;;;;;;7.45;4.53;;;;;;;4.16;100.00;101713.44;4961712;28;20042;-72
2023/12/14 10:58:03;;;;;;;9.25;4.50;;;;;;;4.14;100.00;101718.94;4944175;28;20436;-74
2023/12/14 11:00:30;;;;;;;6.70;4.30;;;;;;;4.15;100.00;101725.06;4960723;28;20515;-73
2023/12/14 11:02:59;;;;;;;9.20;4.32;;;;;;;4.15;100.00;101723.22;4959460;28;20053;-72
2023/12/14 11:05:29;;;;;;;6.78;3.72;;;;;;;4.13;100.00;101729.72;4961710;28;20036;-72
2023/12/14 11:08:01;;;;;;;5.50;3.95;;;;;;;4.17;100.00;101733.63;4958595;28;20118;-73
2023/12/14 11:10:37;;;;;;;5.28;3.42;;;;;;;4.16;100.00;101737.28;4963608;28;20540;-72
2023/12/14 11:13:09;;;;;;;8.88;4.20;;;;;;;4.16;100.00;101739.94;4947760;28;20212;-73
2023/12/14 11:15:35;;;;;;;6.88;5.25;;;;;;;4.15;100.00;101735.66;4945268;28;20039;-73
2023/12/14 11:18:09;;;;;;;8.00;3.80;;;;;;;4.21;100.00;101748.94;4964423;28;20122;-73
2023/12/14 11:20:48;;;;;;;8.27;3.83;;;;;;;4.26;100.00;101745.66;4948117;28;20042;-73
2023/12/14 11:23:38;;;;;;;6.60;4.20;;;;;;;4.21;100.00;101751.56;4965001;28;20039;-72